sensor_id;sensor_type;location;lat;lon;timestamp;pressure;altitude;pressure_sealevel;temperature;humidity
40794;BME280;26502;51.886;15.604;2023-02-15T00:01:16;102405.11;;;-0.06;72.47
40794;BME280;26502;51.886;15.604;2023-02-15T00:06:25;102408.09;;;-0.15;72.39
40794;BME280;26502;51.886;15.604;2023-02-15T00:11:31;102407.52;;;-0.33;72.30
40794;BME280;26502;51.886;15.604;2023-02-15T00:16:48;102409.62;;;-0.42;72.50
40794;BME280;26502;51.886;15.604;2023-02-15T00:21:55;102405.27;;;-0.38;72.64
40794;BME280;26502;51.886;15.604;2023-02-15T00:27:01;102404.71;;;-0.38;72.80
40794;BME280;26502;51.886;15.604;2023-02-15T00:32:07;102400.19;;;-0.38;72.53
40794;BME280;26502;51.886;15.604;2023-02-15T00:37:13;102394.79;;;-0.46;72.68
40794;BME280;26502;51.886;15.604;2023-02-15T00:42:19;102390.77;;;-0.55;72.87
40794;BME280;26502;51.886;15.604;2023-02-15T00:47:25;102382.95;;;-0.58;72.87
40794;BME280;26502;51.886;15.604;2023-02-15T00:52:32;102380.21;;;-0.66;72.91
40794;BME280;26502;51.886;15.604;2023-02-15T00:57:38;102385.66;;;-0.69;73.01
40794;BME280;26502;51.886;15.604;2023-02-15T01:02:44;102381.84;;;-0.69;73.00
40794;BME280;26502;51.886;15.604;2023-02-15T01:07:51;102374.91;;;-0.67;72.95
40794;BME280;26502;51.886;15.604;2023-02-15T01:12:57;102371.35;;;-0.78;72.80
40794;BME280;26502;51.886;15.604;2023-02-15T01:18:03;102373.00;;;-0.80;72.97
40794;BME280;26502;51.886;15.604;2023-02-15T01:23:09;102371.33;;;-0.78;73.08
40794;BME280;26502;51.886;15.604;2023-02-15T01:28:16;102363.73;;;-0.81;73.19
40794;BME280;26502;51.886;15.604;2023-02-15T01:33:22;102363.27;;;-0.88;73.09
40794;BME280;26502;51.886;15.604;2023-02-15T01:38:29;102358.48;;;-0.94;73.14
40794;BME280;26502;51.886;15.604;2023-02-15T01:43:43;102353.56;;;-1.03;73.02
40794;BME280;26502;51.886;15.604;2023-02-15T01:48:52;102342.55;;;-1.12;73.20
40794;BME280;26502;51.886;15.604;2023-02-15T01:54:05;102332.48;;;-1.07;73.35
40794;BME280;26502;51.886;15.604;2023-02-15T01:59:19;102322.33;;;-0.99;73.35
40794;BME280;26502;51.886;15.604;2023-02-15T02:04:33;102311.90;;;-1.02;73.05
40794;BME280;26502;51.886;15.604;2023-02-15T02:09:41;102308.13;;;-1.01;73.29
40794;BME280;26502;51.886;15.604;2023-02-15T02:14:50;102303.48;;;-1.08;73.15
40794;BME280;26502;51.886;15.604;2023-02-15T02:20:17;102293.99;;;-1.14;73.31
40794;BME280;26502;51.886;15.604;2023-02-15T02:25:44;102283.74;;;-1.22;73.37
40794;BME280;26502;51.886;15.604;2023-02-15T02:31:19;102274.84;;;-1.22;73.28
40794;BME280;26502;51.886;15.604;2023-02-15T02:36:36;102267.11;;;-1.24;73.32
40794;BME280;26502;51.886;15.604;2023-02-15T02:41:55;102264.33;;;-1.23;73.39
40794;BME280;26502;51.886;15.604;2023-02-15T02:47:09;102261.92;;;-1.22;73.32
40794;BME280;26502;51.886;15.604;2023-02-15T02:52:36;102256.39;;;-1.21;73.39
40794;BME280;26502;51.886;15.604;2023-02-15T02:57:47;102251.14;;;-1.17;73.43
40794;BME280;26502;51.886;15.604;2023-02-15T03:03:08;102249.59;;;-1.26;73.20
40794;BME280;26502;51.886;15.604;2023-02-15T03:08:17;102248.25;;;-1.32;73.22
40794;BME280;26502;51.886;15.604;2023-02-15T03:13:27;102240.37;;;-1.38;73.43
40794;BME280;26502;51.886;15.604;2023-02-15T03:18:38;102240.39;;;-1.46;73.43
40794;BME280;26502;51.886;15.604;2023-02-15T03:23:45;102236.77;;;-1.49;73.59
40794;BME280;26502;51.886;15.604;2023-02-15T03:28:55;102233.48;;;-1.44;73.57
40794;BME280;26502;51.886;15.604;2023-02-15T03:34:04;102236.48;;;-1.39;73.51
40794;BME280;26502;51.886;15.604;2023-02-15T03:39:17;102232.01;;;-1.38;73.67
40794;BME280;26502;51.886;15.604;2023-02-15T03:44:29;102234.52;;;-1.36;73.61
40794;BME280;26502;51.886;15.604;2023-02-15T03:49:40;102232.45;;;-1.44;73.38
40794;BME280;26502;51.886;15.604;2023-02-15T03:54:48;102238.61;;;-1.50;73.55
40794;BME280;26502;51.886;15.604;2023-02-15T03:59:55;102237.08;;;-1.54;73.59
40794;BME280;26502;51.886;15.604;2023-02-15T04:05:19;102233.05;;;-1.59;73.85
40794;BME280;26502;51.886;15.604;2023-02-15T04:10:25;102230.55;;;-1.60;73.53
40794;BME280;26502;51.886;15.604;2023-02-15T04:15:49;102226.16;;;-1.65;73.66
40794;BME280;26502;51.886;15.604;2023-02-15T04:21:11;102227.83;;;-1.63;73.65
40794;BME280;26502;51.886;15.604;2023-02-15T04:26:35;102232.83;;;-1.68;73.47
40794;BME280;26502;51.886;15.604;2023-02-15T04:31:41;102225.66;;;-1.69;73.55
40794;BME280;26502;51.886;15.604;2023-02-15T04:36:48;102220.27;;;-1.68;73.62
40794;BME280;26502;51.886;15.604;2023-02-15T04:41:54;102219.20;;;-1.73;73.66
40794;BME280;26502;51.886;15.604;2023-02-15T04:47:00;102215.28;;;-1.83;73.38
40794;BME280;26502;51.886;15.604;2023-02-15T04:52:07;102211.13;;;-1.87;73.68
40794;BME280;26502;51.886;15.604;2023-02-15T04:57:14;102214.02;;;-1.89;73.56
40794;BME280;26502;51.886;15.604;2023-02-15T05:02:20;102208.34;;;-1.91;73.55
40794;BME280;26502;51.886;15.604;2023-02-15T05:07:26;102211.13;;;-1.91;73.60
40794;BME280;26502;51.886;15.604;2023-02-15T05:12:32;102207.94;;;-1.88;73.73
40794;BME280;26502;51.886;15.604;2023-02-15T05:17:38;102205.48;;;-1.89;73.70
40794;BME280;26502;51.886;15.604;2023-02-15T05:22:44;102202.80;;;-1.86;73.63
40794;BME280;26502;51.886;15.604;2023-02-15T05:27:50;102198.95;;;-1.91;73.74
40794;BME280;26502;51.886;15.604;2023-02-15T05:33:14;102199.33;;;-2.02;73.59
40794;BME280;26502;51.886;15.604;2023-02-15T05:38:20;102197.77;;;-2.10;73.37
40794;BME280;26502;51.886;15.604;2023-02-15T05:43:27;102189.73;;;-2.11;73.41
40794;BME280;26502;51.886;15.604;2023-02-15T05:48:34;102189.08;;;-2.06;73.47
40794;BME280;26502;51.886;15.604;2023-02-15T05:53:41;102189.01;;;-2.11;73.66
40794;BME280;26502;51.886;15.604;2023-02-15T05:58:47;102188.13;;;-2.12;73.81
40794;BME280;26502;51.886;15.604;2023-02-15T06:03:53;102186.05;;;-2.15;73.75
40794;BME280;26502;51.886;15.604;2023-02-15T06:09:00;102188.48;;;-2.27;73.71
40794;BME280;26502;51.886;15.604;2023-02-15T06:14:06;102190.98;;;-2.38;73.79
40794;BME280;26502;51.886;15.604;2023-02-15T06:19:13;102192.58;;;-2.49;73.90
40794;BME280;26502;51.886;15.604;2023-02-15T06:24:19;102197.57;;;-2.54;73.74
40794;BME280;26502;51.886;15.604;2023-02-15T06:29:25;102197.08;;;-2.57;73.95
40794;BME280;26502;51.886;15.604;2023-02-15T06:34:31;102203.34;;;-2.45;73.95
40794;BME280;26502;51.886;15.604;2023-02-15T06:39:38;102194.25;;;-2.35;74.00
40794;BME280;26502;51.886;15.604;2023-02-15T06:44:44;102183.50;;;-2.22;73.87
40794;BME280;26502;51.886;15.604;2023-02-15T06:49:50;102177.40;;;-2.14;73.80
40794;BME280;26502;51.886;15.604;2023-02-15T06:54:59;102177.79;;;-2.05;73.81
40794;BME280;26502;51.886;15.604;2023-02-15T07:00:08;102174.83;;;-2.05;73.76
40794;BME280;26502;51.886;15.604;2023-02-15T07:05:15;102169.71;;;-2.02;74.20
40794;BME280;26502;51.886;15.604;2023-02-15T07:10:21;102163.55;;;-2.00;74.28
40794;BME280;26502;51.886;15.604;2023-02-15T07:15:27;102155.83;;;-1.89;74.19
40794;BME280;26502;51.886;15.604;2023-02-15T07:20:34;102157.16;;;-1.82;74.14
40794;BME280;26502;51.886;15.604;2023-02-15T07:25:41;102153.40;;;-1.72;74.15
40794;BME280;26502;51.886;15.604;2023-02-15T07:36:43;102131.61;;;-1.56;74.46
40794;BME280;26502;51.886;15.604;2023-02-15T07:41:50;102126.90;;;-1.38;74.62
40794;BME280;26502;51.886;15.604;2023-02-15T07:46:56;102122.86;;;-1.30;74.77
40794;BME280;26502;51.886;15.604;2023-02-15T07:52:03;102123.34;;;-1.23;74.84
40794;BME280;26502;51.886;15.604;2023-02-15T07:57:09;102119.52;;;-1.08;75.07
40794;BME280;26502;51.886;15.604;2023-02-15T08:02:15;102113.91;;;-0.86;75.02
40794;BME280;26502;51.886;15.604;2023-02-15T08:07:22;102110.35;;;-0.64;75.21
40794;BME280;26502;51.886;15.604;2023-02-15T08:12:28;102105.66;;;-0.49;75.30
40794;BME280;26502;51.886;15.604;2023-02-15T08:17:41;102101.95;;;-0.30;75.31
40794;BME280;26502;51.886;15.604;2023-02-15T08:23:12;102097.43;;;-0.20;75.56
40794;BME280;26502;51.886;15.604;2023-02-15T08:34:37;102087.68;;;0.28;76.33
40794;BME280;26502;51.886;15.604;2023-02-15T08:40:02;102080.94;;;0.42;76.17
40794;BME280;26502;51.886;15.604;2023-02-15T08:45:10;102077.40;;;0.57;76.51
40794;BME280;26502;51.886;15.604;2023-02-15T08:50:16;102077.92;;;0.80;76.70
40794;BME280;26502;51.886;15.604;2023-02-15T08:55:22;102073.90;;;1.10;76.93
40794;BME280;26502;51.886;15.604;2023-02-15T09:00:28;102065.58;;;1.26;76.31
40794;BME280;26502;51.886;15.604;2023-02-15T09:05:35;102056.87;;;1.34;76.49
40794;BME280;26502;51.886;15.604;2023-02-15T09:10:41;102045.34;;;1.54;76.53
40794;BME280;26502;51.886;15.604;2023-02-15T09:15:48;102038.38;;;1.69;76.58
40794;BME280;26502;51.886;15.604;2023-02-15T09:20:54;102046.12;;;1.84;76.70
40794;BME280;26502;51.886;15.604;2023-02-15T09:26:05;102044.13;;;1.95;76.03
40794;BME280;26502;51.886;15.604;2023-02-15T09:31:14;102033.92;;;2.09;76.70
40794;BME280;26502;51.886;15.604;2023-02-15T09:36:24;102036.35;;;2.37;76.35
40794;BME280;26502;51.886;15.604;2023-02-15T09:47:34;102027.84;;;2.64;76.61
40794;BME280;26502;51.886;15.604;2023-02-15T09:52:53;102020.17;;;2.92;76.48
40794;BME280;26502;51.886;15.604;2023-02-15T09:58:07;102013.52;;;3.19;76.28
40794;BME280;26502;51.886;15.604;2023-02-15T10:03:33;102006.27;;;3.34;76.10
40794;BME280;26502;51.886;15.604;2023-02-15T10:08:55;101999.42;;;3.55;76.37
40794;BME280;26502;51.886;15.604;2023-02-15T10:14:18;101997.00;;;3.67;75.44
40794;BME280;26502;51.886;15.604;2023-02-15T10:19:35;101997.08;;;3.92;75.91
40794;BME280;26502;51.886;15.604;2023-02-15T10:25:08;101997.16;;;4.20;75.65
40794;BME280;26502;51.886;15.604;2023-02-15T10:30:25;101990.64;;;4.44;75.74
40794;BME280;26502;51.886;15.604;2023-02-15T10:35:40;101986.80;;;4.73;75.23
40794;BME280;26502;51.886;15.604;2023-02-15T10:40:56;101980.55;;;4.95;75.14
40794;BME280;26502;51.886;15.604;2023-02-15T10:46:14;101968.46;;;5.17;74.68
40794;BME280;26502;51.886;15.604;2023-02-15T11:04:41;101937.39;;;5.90;73.82
40794;BME280;26502;51.886;15.604;2023-02-15T11:09:50;101933.41;;;6.26;73.53
40794;BME280;26502;51.886;15.604;2023-02-15T11:14:58;101922.23;;;6.50;73.21
40794;BME280;26502;51.886;15.604;2023-02-15T11:27:18;101913.13;;;6.70;72.03
40794;BME280;26502;51.886;15.604;2023-02-15T11:32:25;101908.98;;;7.03;72.13
40794;BME280;26502;51.886;15.604;2023-02-15T11:55:09;101890.77;;;8.45;70.25
40794;BME280;26502;51.886;15.604;2023-02-15T12:00:27;101880.11;;;8.91;70.12
40794;BME280;26502;51.886;15.604;2023-02-15T12:05:42;101876.98;;;9.08;69.65
40794;BME280;26502;51.886;15.604;2023-02-15T12:11:00;101873.19;;;9.43;69.43
40794;BME280;26502;51.886;15.604;2023-02-15T12:16:13;101865.94;;;9.59;68.66
40794;BME280;26502;51.886;15.604;2023-02-15T12:21:27;101858.29;;;9.62;68.44
40794;BME280;26502;51.886;15.604;2023-02-15T12:26:36;101855.99;;;9.60;67.99
40794;BME280;26502;51.886;15.604;2023-02-15T12:31:45;101852.90;;;9.69;67.96
40794;BME280;26502;51.886;15.604;2023-02-15T12:36:55;101844.33;;;9.75;67.74
40794;BME280;26502;51.886;15.604;2023-02-15T12:42:16;101842.74;;;9.73;67.15
40794;BME280;26502;51.886;15.604;2023-02-15T12:47:24;101838.30;;;9.58;66.26
40794;BME280;26502;51.886;15.604;2023-02-15T12:52:31;101827.73;;;9.67;66.00
40794;BME280;26502;51.886;15.604;2023-02-15T12:57:37;101821.40;;;9.94;66.14
40794;BME280;26502;51.886;15.604;2023-02-15T13:02:47;101821.15;;;10.02;65.55
40794;BME280;26502;51.886;15.604;2023-02-15T13:07:56;101814.63;;;9.98;65.09
40794;BME280;26502;51.886;15.604;2023-02-15T13:13:03;101801.95;;;10.18;65.14
40794;BME280;26502;51.886;15.604;2023-02-15T13:18:18;101792.98;;;10.40;64.97
40794;BME280;26502;51.886;15.604;2023-02-15T13:23:29;101782.89;;;10.63;64.88
40794;BME280;26502;51.886;15.604;2023-02-15T13:28:40;101779.44;;;10.91;64.82
40794;BME280;26502;51.886;15.604;2023-02-15T13:33:53;101776.34;;;10.85;64.12
40794;BME280;26502;51.886;15.604;2023-02-15T13:39:01;101775.59;;;10.76;63.69
40794;BME280;26502;51.886;15.604;2023-02-15T13:44:15;101775.89;;;10.90;63.91
40794;BME280;26502;51.886;15.604;2023-02-15T13:49:36;101777.89;;;10.76;63.34
40794;BME280;26502;51.886;15.604;2023-02-15T13:54:55;101779.67;;;10.76;63.36
40794;BME280;26502;51.886;15.604;2023-02-15T14:00:15;101778.92;;;10.67;62.98
40794;BME280;26502;51.886;15.604;2023-02-15T14:06:08;101772.70;;;10.79;63.00
40794;BME280;26502;51.886;15.604;2023-02-15T14:11:25;101768.28;;;10.89;62.69
40794;BME280;26502;51.886;15.604;2023-02-15T14:16:45;101764.30;;;11.03;62.48
40794;BME280;26502;51.886;15.604;2023-02-15T14:21:59;101769.38;;;11.08;61.98
40794;BME280;26502;51.886;15.604;2023-02-15T14:27:17;101768.65;;;10.87;61.70
40794;BME280;26502;51.886;15.604;2023-02-15T14:32:29;101770.32;;;10.95;61.56
40794;BME280;26502;51.886;15.604;2023-02-15T14:37:47;101764.92;;;11.18;61.54
40794;BME280;26502;51.886;15.604;2023-02-15T14:43:00;101754.35;;;11.53;61.64
40794;BME280;26502;51.886;15.604;2023-02-15T14:48:13;101748.18;;;11.40;61.20
40794;BME280;26502;51.886;15.604;2023-02-15T14:53:41;101751.50;;;11.14;61.10
40794;BME280;26502;51.886;15.604;2023-02-15T14:58:59;101749.41;;;10.91;61.05
40794;BME280;26502;51.886;15.604;2023-02-15T15:04:09;101749.23;;;10.90;61.09
40794;BME280;26502;51.886;15.604;2023-02-15T15:09:24;101740.17;;;10.79;61.06
40794;BME280;26502;51.886;15.604;2023-02-15T15:14:41;101734.33;;;10.56;61.17
40794;BME280;26502;51.886;15.604;2023-02-15T15:20:05;101734.55;;;10.42;61.39
40794;BME280;26502;51.886;15.604;2023-02-15T15:25:44;101727.91;;;10.19;61.50
40794;BME280;26502;51.886;15.604;2023-02-15T15:30:54;101721.60;;;9.86;61.71
40794;BME280;26502;51.886;15.604;2023-02-15T15:36:17;101719.08;;;9.44;61.58
40794;BME280;26502;51.886;15.604;2023-02-15T15:47:47;101721.85;;;8.79;62.00
40794;BME280;26502;51.886;15.604;2023-02-15T15:52:59;101718.00;;;8.49;62.50
40794;BME280;26502;51.886;15.604;2023-02-15T15:58:08;101714.44;;;8.22;62.35
40794;BME280;26502;51.886;15.604;2023-02-15T16:03:20;101707.39;;;7.83;62.68
40794;BME280;26502;51.886;15.604;2023-02-15T16:08:32;101710.68;;;7.56;62.71
40794;BME280;26502;51.886;15.604;2023-02-15T16:13:41;101711.63;;;7.34;62.80
40794;BME280;26502;51.886;15.604;2023-02-15T16:18:48;101708.50;;;7.10;62.90
40794;BME280;26502;51.886;15.604;2023-02-15T16:24:15;101707.64;;;6.78;63.18
40794;BME280;26502;51.886;15.604;2023-02-15T16:29:30;101703.92;;;6.49;63.15
40794;BME280;26502;51.886;15.604;2023-02-15T16:34:37;101704.43;;;6.27;63.43
40794;BME280;26502;51.886;15.604;2023-02-15T16:39:45;101700.68;;;6.12;63.90
40794;BME280;26502;51.886;15.604;2023-02-15T16:44:56;101695.91;;;6.04;64.00
40794;BME280;26502;51.886;15.604;2023-02-15T16:50:06;101691.71;;;5.71;63.88
40794;BME280;26502;51.886;15.604;2023-02-15T16:55:24;101693.16;;;5.40;64.25
40794;BME280;26502;51.886;15.604;2023-02-15T17:00:34;101686.27;;;5.32;64.12
40794;BME280;26502;51.886;15.604;2023-02-15T17:05:46;101684.79;;;5.21;64.35
40794;BME280;26502;51.886;15.604;2023-02-15T17:11:08;101681.21;;;5.13;64.47
40794;BME280;26502;51.886;15.604;2023-02-15T17:16:32;101675.66;;;4.99;64.32
40794;BME280;26502;51.886;15.604;2023-02-15T17:21:42;101677.46;;;4.78;64.54
40794;BME280;26502;51.886;15.604;2023-02-15T17:26:53;101679.27;;;4.61;64.53
40794;BME280;26502;51.886;15.604;2023-02-15T17:32:05;101673.44;;;4.38;64.68
40794;BME280;26502;51.886;15.604;2023-02-15T17:37:28;101670.77;;;4.00;64.75
40794;BME280;26502;51.886;15.604;2023-02-15T17:42:35;101667.30;;;3.56;64.94
40794;BME280;26502;51.886;15.604;2023-02-15T17:47:46;101664.17;;;3.19;65.27
40794;BME280;26502;51.886;15.604;2023-02-15T17:52:55;101673.95;;;3.01;65.98
40794;BME280;26502;51.886;15.604;2023-02-15T17:58:02;101686.22;;;3.01;66.28
40794;BME280;26502;51.886;15.604;2023-02-15T18:03:10;101681.64;;;2.89;66.36
40794;BME280;26502;51.886;15.604;2023-02-15T18:08:35;101682.39;;;2.68;66.80
40794;BME280;26502;51.886;15.604;2023-02-15T18:13:59;101690.02;;;2.63;66.88
40794;BME280;26502;51.886;15.604;2023-02-15T18:19:08;101693.77;;;2.67;66.83
40794;BME280;26502;51.886;15.604;2023-02-15T18:24:21;101681.28;;;2.76;67.29
40794;BME280;26502;51.886;15.604;2023-02-15T18:29:26;101671.19;;;2.81;67.12
40794;BME280;26502;51.886;15.604;2023-02-15T18:34:35;101664.55;;;2.72;67.22
40794;BME280;26502;51.886;15.604;2023-02-15T18:39:44;101661.72;;;2.71;67.02
40794;BME280;26502;51.886;15.604;2023-02-15T18:44:54;101660.88;;;2.61;67.14
40794;BME280;26502;51.886;15.604;2023-02-15T18:50:01;101661.46;;;2.54;67.15
40794;BME280;26502;51.886;15.604;2023-02-15T18:55:17;101669.39;;;2.46;66.94
40794;BME280;26502;51.886;15.604;2023-02-15T19:00:25;101671.39;;;2.40;67.15
40794;BME280;26502;51.886;15.604;2023-02-15T19:12:27;101665.91;;;1.71;67.30
40794;BME280;26502;51.886;15.604;2023-02-15T19:17:33;101674.23;;;1.32;67.45
40794;BME280;26502;51.886;15.604;2023-02-15T19:22:46;101670.86;;;1.22;67.69
40794;BME280;26502;51.886;15.604;2023-02-15T19:27:53;101664.77;;;1.08;68.11
40794;BME280;26502;51.886;15.604;2023-02-15T19:33:00;101657.86;;;1.03;68.25
40794;BME280;26502;51.886;15.604;2023-02-15T19:38:26;101655.50;;;0.99;68.24
40794;BME280;26502;51.886;15.604;2023-02-15T19:43:35;101651.51;;;0.70;68.25
40794;BME280;26502;51.886;15.604;2023-02-15T19:48:41;101646.64;;;0.35;68.55
40794;BME280;26502;51.886;15.604;2023-02-15T19:53:49;101648.08;;;0.23;68.94
40794;BME280;26502;51.886;15.604;2023-02-15T19:58:55;101649.13;;;0.23;69.28
40794;BME280;26502;51.886;15.604;2023-02-15T20:04:03;101647.20;;;0.23;69.42
40794;BME280;26502;51.886;15.604;2023-02-15T20:09:18;101644.46;;;0.32;69.51
40794;BME280;26502;51.886;15.604;2023-02-15T20:14:26;101636.80;;;0.25;69.40
40794;BME280;26502;51.886;15.604;2023-02-15T20:19:33;101630.98;;;0.09;69.49
40794;BME280;26502;51.886;15.604;2023-02-15T20:24:39;101622.21;;;0.02;69.59
40794;BME280;26502;51.886;15.604;2023-02-15T20:29:46;101613.19;;;0.11;69.89
40794;BME280;26502;51.886;15.604;2023-02-15T20:34:54;101608.27;;;0.30;69.93
40794;BME280;26502;51.886;15.604;2023-02-15T20:40:00;101608.84;;;0.12;69.25
40794;BME280;26502;51.886;15.604;2023-02-15T20:45:15;101601.36;;;-0.08;69.65
40794;BME280;26502;51.886;15.604;2023-02-15T20:50:24;101594.43;;;-0.26;69.60
40794;BME280;26502;51.886;15.604;2023-02-15T20:55:32;101595.21;;;-0.43;69.70
40794;BME280;26502;51.886;15.604;2023-02-15T21:00:38;101593.73;;;-0.58;69.78
40794;BME280;26502;51.886;15.604;2023-02-15T21:05:44;101586.65;;;-0.55;70.48
40794;BME280;26502;51.886;15.604;2023-02-15T21:10:54;101591.16;;;-0.50;70.21
40794;BME280;26502;51.886;15.604;2023-02-15T21:16:01;101587.11;;;-0.58;70.19
40794;BME280;26502;51.886;15.604;2023-02-15T21:21:14;101584.19;;;-0.69;70.14
40794;BME280;26502;51.886;15.604;2023-02-15T21:26:23;101585.55;;;-0.82;70.46
40794;BME280;26502;51.886;15.604;2023-02-15T21:31:30;101578.09;;;-0.87;70.51
40794;BME280;26502;51.886;15.604;2023-02-15T21:36:36;101574.52;;;-0.84;70.72
40794;BME280;26502;51.886;15.604;2023-02-15T21:41:47;101575.16;;;-0.80;70.69
40794;BME280;26502;51.886;15.604;2023-02-15T21:47:18;101579.08;;;-0.70;70.85
40794;BME280;26502;51.886;15.604;2023-02-15T21:52:44;101574.30;;;-0.60;70.80
40794;BME280;26502;51.886;15.604;2023-02-15T21:57:51;101570.77;;;-0.49;70.60
40794;BME280;26502;51.886;15.604;2023-02-15T22:02:58;101568.59;;;-0.52;70.35
40794;BME280;26502;51.886;15.604;2023-02-15T22:08:11;101564.41;;;-0.71;70.39
40794;BME280;26502;51.886;15.604;2023-02-15T22:13:21;101559.09;;;-0.87;70.55
40794;BME280;26502;51.886;15.604;2023-02-15T22:18:32;101560.11;;;-0.94;70.81
40794;BME280;26502;51.886;15.604;2023-02-15T22:23:39;101558.09;;;-0.97;70.69
40794;BME280;26502;51.886;15.604;2023-02-15T22:28:45;101554.79;;;-1.09;70.74
40794;BME280;26502;51.886;15.604;2023-02-15T22:33:51;101560.21;;;-1.20;70.59
40794;BME280;26502;51.886;15.604;2023-02-15T22:38:59;101563.93;;;-1.30;70.84
40794;BME280;26502;51.886;15.604;2023-02-15T22:44:07;101564.30;;;-1.23;71.34
40794;BME280;26502;51.886;15.604;2023-02-15T22:49:14;101558.93;;;-1.04;71.06
40794;BME280;26502;51.886;15.604;2023-02-15T22:54:20;101556.99;;;-1.17;70.93
40794;BME280;26502;51.886;15.604;2023-02-15T22:59:28;101562.48;;;-1.38;70.87
40794;BME280;26502;51.886;15.604;2023-02-15T23:04:38;101561.71;;;-1.51;71.11
40794;BME280;26502;51.886;15.604;2023-02-15T23:09:44;101556.88;;;-1.61;71.30
40794;BME280;26502;51.886;15.604;2023-02-15T23:14:51;101564.98;;;-1.69;71.24
40794;BME280;26502;51.886;15.604;2023-02-15T23:19:57;101561.67;;;-1.81;71.28
40794;BME280;26502;51.886;15.604;2023-02-15T23:25:07;101569.98;;;-1.81;71.41
40794;BME280;26502;51.886;15.604;2023-02-15T23:30:16;101566.53;;;-1.91;71.37
40794;BME280;26502;51.886;15.604;2023-02-15T23:35:22;101573.31;;;-1.97;71.67
40794;BME280;26502;51.886;15.604;2023-02-15T23:40:29;101569.77;;;-1.99;71.55
40794;BME280;26502;51.886;15.604;2023-02-15T23:45:52;101569.17;;;-1.96;71.76
40794;BME280;26502;51.886;15.604;2023-02-15T23:50:59;101570.36;;;-1.97;72.05
40794;BME280;26502;51.886;15.604;2023-02-15T23:56:08;101571.34;;;-1.78;72.17
